sensor_id;sensor_type;location;lat;lon;timestamp;pressure;altitude;pressure_sealevel;temperature;humidity
62632;BME280;48703;51.248;-0.546;2023-02-19T00:02:50;101669;;;9.28;85.95
62632;BME280;48703;51.248;-0.546;2023-02-19T00:05:53;101676;;;9.27;86.06
62632;BME280;48703;51.248;-0.546;2023-02-19T00:08:54;101677;;;9.24;86.04
62632;BME280;48703;51.248;-0.546;2023-02-19T00:11:56;101679;;;9.21;86.15
62632;BME280;48703;51.248;-0.546;2023-02-19T00:14:58;101677;;;9.20;86.21
62632;BME280;48703;51.248;-0.546;2023-02-19T00:18:00;101677;;;9.18;86.28
62632;BME280;48703;51.248;-0.546;2023-02-19T00:21:02;101682;;;9.16;86.30
62632;BME280;48703;51.248;-0.546;2023-02-19T00:24:05;101689;;;9.12;86.40
62632;BME280;48703;51.248;-0.546;2023-02-19T00:27:06;101689;;;9.10;86.62
62632;BME280;48703;51.248;-0.546;2023-02-19T00:30:08;101706;;;9.08;86.75
62632;BME280;48703;51.248;-0.546;2023-02-19T00:33:10;101708;;;9.07;86.80
62632;BME280;48703;51.248;-0.546;2023-02-19T00:36:12;101708;;;9.07;86.85
62632;BME280;48703;51.248;-0.546;2023-02-19T00:39:14;101711;;;9.06;86.98
62632;BME280;48703;51.248;-0.546;2023-02-19T00:42:15;101719;;;9.05;87.03
62632;BME280;48703;51.248;-0.546;2023-02-19T00:45:17;101730;;;9.05;87.12
62632;BME280;48703;51.248;-0.546;2023-02-19T00:48:19;101726;;;9.05;87.11
62632;BME280;48703;51.248;-0.546;2023-02-19T00:51:22;101723;;;9.05;87.18
62632;BME280;48703;51.248;-0.546;2023-02-19T00:54:23;101721;;;9.04;87.17
62632;BME280;48703;51.248;-0.546;2023-02-19T00:57:25;101718;;;9.04;87.10
62632;BME280;48703;51.248;-0.546;2023-02-19T01:00:27;101722;;;9.03;87.01
62632;BME280;48703;51.248;-0.546;2023-02-19T01:03:29;101723;;;9.01;87.02
62632;BME280;48703;51.248;-0.546;2023-02-19T01:06:31;101721;;;8.99;86.95
62632;BME280;48703;51.248;-0.546;2023-02-19T01:09:33;101728;;;8.97;86.89
62632;BME280;48703;51.248;-0.546;2023-02-19T01:12:35;101733;;;8.97;86.93
62632;BME280;48703;51.248;-0.546;2023-02-19T01:15:37;101735;;;8.97;86.84
62632;BME280;48703;51.248;-0.546;2023-02-19T01:18:39;101734;;;8.96;86.71
62632;BME280;48703;51.248;-0.546;2023-02-19T01:21:41;101732;;;8.94;86.71
62632;BME280;48703;51.248;-0.546;2023-02-19T01:24:42;101732;;;8.92;86.62
62632;BME280;48703;51.248;-0.546;2023-02-19T01:27:44;101740;;;8.91;86.48
62632;BME280;48703;51.248;-0.546;2023-02-19T01:30:46;101740;;;8.89;86.32
62632;BME280;48703;51.248;-0.546;2023-02-19T01:33:49;101742;;;8.86;86.24
62632;BME280;48703;51.248;-0.546;2023-02-19T01:36:50;101740;;;8.83;86.31
62632;BME280;48703;51.248;-0.546;2023-02-19T01:39:52;101745;;;8.81;86.23
62632;BME280;48703;51.248;-0.546;2023-02-19T01:42:54;101745;;;8.76;86.45
62632;BME280;48703;51.248;-0.546;2023-02-19T01:45:56;101750;;;8.72;86.45
62632;BME280;48703;51.248;-0.546;2023-02-19T01:48:59;101755;;;8.69;86.63
62632;BME280;48703;51.248;-0.546;2023-02-19T01:52:00;101761;;;8.67;86.67
62632;BME280;48703;51.248;-0.546;2023-02-19T01:55:03;101761;;;8.64;86.52
62632;BME280;48703;51.248;-0.546;2023-02-19T01:58:04;101763;;;8.58;86.71
62632;BME280;48703;51.248;-0.546;2023-02-19T02:01:06;101761;;;8.54;86.96
62632;BME280;48703;51.248;-0.546;2023-02-19T02:04:08;101761;;;8.51;87.03
62632;BME280;48703;51.248;-0.546;2023-02-19T02:07:09;101757;;;8.50;86.90
62632;BME280;48703;51.248;-0.546;2023-02-19T02:10:11;101757;;;8.46;87.00
62632;BME280;48703;51.248;-0.546;2023-02-19T02:13:14;101756;;;8.43;87.02
62632;BME280;48703;51.248;-0.546;2023-02-19T02:16:18;101757;;;8.39;87.17
62632;BME280;48703;51.248;-0.546;2023-02-19T02:19:23;101762;;;8.36;87.21
62632;BME280;48703;51.248;-0.546;2023-02-19T02:22:19;101764;;;8.33;87.20
62632;BME280;48703;51.248;-0.546;2023-02-19T02:25:28;101766;;;8.30;87.26
62632;BME280;48703;51.248;-0.546;2023-02-19T02:28:29;101768;;;8.25;87.32
62632;BME280;48703;51.248;-0.546;2023-02-19T02:31:25;101774;;;8.23;87.53
62632;BME280;48703;51.248;-0.546;2023-02-19T02:34:28;101777;;;8.20;87.45
62632;BME280;48703;51.248;-0.546;2023-02-19T02:37:29;101777;;;8.18;87.44
62632;BME280;48703;51.248;-0.546;2023-02-19T02:40:31;101784;;;8.16;87.38
62632;BME280;48703;51.248;-0.546;2023-02-19T02:43:33;101789;;;8.11;87.45
62632;BME280;48703;51.248;-0.546;2023-02-19T02:46:35;101794;;;8.05;87.45
62632;BME280;48703;51.248;-0.546;2023-02-19T02:49:36;101799;;;8.03;87.58
62632;BME280;48703;51.248;-0.546;2023-02-19T02:52:39;101795;;;8.01;87.55
62632;BME280;48703;51.248;-0.546;2023-02-19T02:55:41;101797;;;7.98;87.61
62632;BME280;48703;51.248;-0.546;2023-02-19T02:58:42;101798;;;7.93;87.60
62632;BME280;48703;51.248;-0.546;2023-02-19T03:01:45;101798;;;7.93;87.72
62632;BME280;48703;51.248;-0.546;2023-02-19T03:04:47;101804;;;7.89;87.74
62632;BME280;48703;51.248;-0.546;2023-02-19T03:07:49;101806;;;7.86;87.71
62632;BME280;48703;51.248;-0.546;2023-02-19T03:10:51;101801;;;7.85;87.70
62632;BME280;48703;51.248;-0.546;2023-02-19T03:13:52;101801;;;7.84;87.69
62632;BME280;48703;51.248;-0.546;2023-02-19T03:16:55;101801;;;7.83;87.67
62632;BME280;48703;51.248;-0.546;2023-02-19T03:19:56;101807;;;7.79;87.63
62632;BME280;48703;51.248;-0.546;2023-02-19T03:22:58;101809;;;7.78;87.54
62632;BME280;48703;51.248;-0.546;2023-02-19T03:26:00;101814;;;7.75;87.57
62632;BME280;48703;51.248;-0.546;2023-02-19T03:29:02;101819;;;7.73;87.51
62632;BME280;48703;51.248;-0.546;2023-02-19T03:32:05;101819;;;7.72;87.39
62632;BME280;48703;51.248;-0.546;2023-02-19T03:35:07;101824;;;7.71;87.34
62632;BME280;48703;51.248;-0.546;2023-02-19T03:38:08;101828;;;7.68;87.25
62632;BME280;48703;51.248;-0.546;2023-02-19T03:41:10;101830;;;7.66;87.13
62632;BME280;48703;51.248;-0.546;2023-02-19T03:44:12;101832;;;7.64;87.14
62632;BME280;48703;51.248;-0.546;2023-02-19T03:47:14;101840;;;7.63;87.10
62632;BME280;48703;51.248;-0.546;2023-02-19T03:50:16;101845;;;7.58;87.23
62632;BME280;48703;51.248;-0.546;2023-02-19T03:53:20;101843;;;7.54;87.17
62632;BME280;48703;51.248;-0.546;2023-02-19T03:56:21;101850;;;7.52;87.27
62632;BME280;48703;51.248;-0.546;2023-02-19T03:59:23;101855;;;7.49;87.27
62632;BME280;48703;51.248;-0.546;2023-02-19T04:02:25;101849;;;7.49;87.20
62632;BME280;48703;51.248;-0.546;2023-02-19T04:05:25;101850;;;7.48;87.20
62632;BME280;48703;51.248;-0.546;2023-02-19T04:08:27;101852;;;7.43;87.14
62632;BME280;48703;51.248;-0.546;2023-02-19T04:11:29;101854;;;7.41;87.21
62632;BME280;48703;51.248;-0.546;2023-02-19T04:14:31;101859;;;7.39;87.12
62632;BME280;48703;51.248;-0.546;2023-02-19T04:17:33;101867;;;7.36;87.11
62632;BME280;48703;51.248;-0.546;2023-02-19T04:20:35;101875;;;7.34;87.08
62632;BME280;48703;51.248;-0.546;2023-02-19T04:23:37;101873;;;7.34;87.05
62632;BME280;48703;51.248;-0.546;2023-02-19T04:26:38;101878;;;7.31;86.93
62632;BME280;48703;51.248;-0.546;2023-02-19T04:29:40;101883;;;7.29;86.89
62632;BME280;48703;51.248;-0.546;2023-02-19T04:32:42;101885;;;7.25;86.92
62632;BME280;48703;51.248;-0.546;2023-02-19T04:35:44;101890;;;7.22;86.92
62632;BME280;48703;51.248;-0.546;2023-02-19T04:38:46;101902;;;7.21;86.86
62632;BME280;48703;51.248;-0.546;2023-02-19T04:41:48;101899;;;7.20;86.80
62632;BME280;48703;51.248;-0.546;2023-02-19T04:44:50;101901;;;7.20;86.73
62632;BME280;48703;51.248;-0.546;2023-02-19T04:47:52;101912;;;7.18;86.74
62632;BME280;48703;51.248;-0.546;2023-02-19T04:50:54;101913;;;7.17;86.75
62632;BME280;48703;51.248;-0.546;2023-02-19T04:53:55;101911;;;7.13;86.72
62632;BME280;48703;51.248;-0.546;2023-02-19T04:56:57;101908;;;7.12;86.73
62632;BME280;48703;51.248;-0.546;2023-02-19T04:59:59;101914;;;7.09;86.80
62632;BME280;48703;51.248;-0.546;2023-02-19T05:03:01;101917;;;7.06;86.83
62632;BME280;48703;51.248;-0.546;2023-02-19T05:06:04;101920;;;7.06;86.83
62632;BME280;48703;51.248;-0.546;2023-02-19T05:09:05;101927;;;7.03;86.80
62632;BME280;48703;51.248;-0.546;2023-02-19T05:12:07;101940;;;7.01;86.79
62632;BME280;48703;51.248;-0.546;2023-02-19T05:15:09;101942;;;6.98;86.90
62632;BME280;48703;51.248;-0.546;2023-02-19T05:18:11;101948;;;6.98;86.93
62632;BME280;48703;51.248;-0.546;2023-02-19T05:21:13;101948;;;6.98;86.98
62632;BME280;48703;51.248;-0.546;2023-02-19T05:24:15;101941;;;7.00;87.11
62632;BME280;48703;51.248;-0.546;2023-02-19T05:27:17;101946;;;7.00;87.18
62632;BME280;48703;51.248;-0.546;2023-02-19T05:30:19;101954;;;7.01;87.13
62632;BME280;48703;51.248;-0.546;2023-02-19T05:33:21;101956;;;7.01;87.21
62632;BME280;48703;51.248;-0.546;2023-02-19T05:36:22;101952;;;7.02;87.24
62632;BME280;48703;51.248;-0.546;2023-02-19T05:39:24;101954;;;7.03;87.24
62632;BME280;48703;51.248;-0.546;2023-02-19T05:42:26;101956;;;7.05;87.23
62632;BME280;48703;51.248;-0.546;2023-02-19T05:45:28;101963;;;7.06;87.18
62632;BME280;48703;51.248;-0.546;2023-02-19T05:48:30;101960;;;7.06;87.24
62632;BME280;48703;51.248;-0.546;2023-02-19T05:51:32;101960;;;7.06;87.18
62632;BME280;48703;51.248;-0.546;2023-02-19T05:54:34;101962;;;7.05;87.07
62632;BME280;48703;51.248;-0.546;2023-02-19T05:57:38;101955;;;7.03;87.05
62632;BME280;48703;51.248;-0.546;2023-02-19T06:00:38;101952;;;7.03;87.00
62632;BME280;48703;51.248;-0.546;2023-02-19T06:03:40;101959;;;7.00;87.06
62632;BME280;48703;51.248;-0.546;2023-02-19T06:06:42;101961;;;6.98;87.02
62632;BME280;48703;51.248;-0.546;2023-02-19T06:09:44;101967;;;6.96;87.05
62632;BME280;48703;51.248;-0.546;2023-02-19T06:12:46;101963;;;6.93;87.03
62632;BME280;48703;51.248;-0.546;2023-02-19T06:15:47;101962;;;6.91;87.04
62632;BME280;48703;51.248;-0.546;2023-02-19T06:18:49;101965;;;6.88;87.05
62632;BME280;48703;51.248;-0.546;2023-02-19T06:21:51;101965;;;6.87;86.95
62632;BME280;48703;51.248;-0.546;2023-02-19T06:24:53;101962;;;6.87;86.89
62632;BME280;48703;51.248;-0.546;2023-02-19T06:27:55;101976;;;6.87;86.73
62632;BME280;48703;51.248;-0.546;2023-02-19T06:30:57;101985;;;6.88;86.59
62632;BME280;48703;51.248;-0.546;2023-02-19T06:34:01;101992;;;6.88;86.44
62632;BME280;48703;51.248;-0.546;2023-02-19T06:37:01;102002;;;6.87;86.26
62632;BME280;48703;51.248;-0.546;2023-02-19T06:40:03;102004;;;6.87;86.28
62632;BME280;48703;51.248;-0.546;2023-02-19T06:43:05;102007;;;6.86;86.27
62632;BME280;48703;51.248;-0.546;2023-02-19T06:46:07;102009;;;6.84;86.35
62632;BME280;48703;51.248;-0.546;2023-02-19T06:49:09;102016;;;6.83;86.16
62632;BME280;48703;51.248;-0.546;2023-02-19T06:52:11;102007;;;6.81;86.36
62632;BME280;48703;51.248;-0.546;2023-02-19T06:55:12;102001;;;6.79;86.35
62632;BME280;48703;51.248;-0.546;2023-02-19T06:58:14;101997;;;6.76;86.27
62632;BME280;48703;51.248;-0.546;2023-02-19T07:01:16;102001;;;6.74;86.28
62632;BME280;48703;51.248;-0.546;2023-02-19T07:04:18;102000;;;6.71;86.30
62632;BME280;48703;51.248;-0.546;2023-02-19T07:07:20;102006;;;6.69;86.42
62632;BME280;48703;51.248;-0.546;2023-02-19T07:10:22;102009;;;6.68;86.43
62632;BME280;48703;51.248;-0.546;2023-02-19T07:13:24;102016;;;6.67;86.53
62632;BME280;48703;51.248;-0.546;2023-02-19T07:16:26;102022;;;6.67;86.40
62632;BME280;48703;51.248;-0.546;2023-02-19T07:19:28;102034;;;6.68;86.28
62632;BME280;48703;51.248;-0.546;2023-02-19T07:22:30;102034;;;6.69;86.33
62632;BME280;48703;51.248;-0.546;2023-02-19T07:25:32;102040;;;6.70;86.38
62632;BME280;48703;51.248;-0.546;2023-02-19T07:28:34;102048;;;6.69;86.30
62632;BME280;48703;51.248;-0.546;2023-02-19T07:31:36;102048;;;6.70;86.49
62632;BME280;48703;51.248;-0.546;2023-02-19T07:34:38;102050;;;6.70;86.21
62632;BME280;48703;51.248;-0.546;2023-02-19T07:37:40;102052;;;6.71;86.35
62632;BME280;48703;51.248;-0.546;2023-02-19T07:40:41;102054;;;6.71;86.26
62632;BME280;48703;51.248;-0.546;2023-02-19T07:43:43;102062;;;6.71;86.31
62632;BME280;48703;51.248;-0.546;2023-02-19T07:46:45;102078;;;6.75;86.19
62632;BME280;48703;51.248;-0.546;2023-02-19T07:49:47;102082;;;6.76;86.14
62632;BME280;48703;51.248;-0.546;2023-02-19T07:52:49;102084;;;6.78;86.07
62632;BME280;48703;51.248;-0.546;2023-02-19T07:55:51;102092;;;6.79;86.00
62632;BME280;48703;51.248;-0.546;2023-02-19T07:58:53;102089;;;6.80;86.22
62632;BME280;48703;51.248;-0.546;2023-02-19T08:01:55;102083;;;6.81;86.15
62632;BME280;48703;51.248;-0.546;2023-02-19T08:04:57;102083;;;6.82;86.27
62632;BME280;48703;51.248;-0.546;2023-02-19T08:07:59;102099;;;6.83;86.17
62632;BME280;48703;51.248;-0.546;2023-02-19T08:11:01;102102;;;6.84;86.44
62632;BME280;48703;51.248;-0.546;2023-02-19T08:14:03;102104;;;6.85;86.31
62632;BME280;48703;51.248;-0.546;2023-02-19T08:17:04;102110;;;6.86;86.43
62632;BME280;48703;51.248;-0.546;2023-02-19T08:20:07;102111;;;6.85;86.29
62632;BME280;48703;51.248;-0.546;2023-02-19T08:23:09;102116;;;6.85;85.96
62632;BME280;48703;51.248;-0.546;2023-02-19T08:26:10;102119;;;6.86;86.00
62632;BME280;48703;51.248;-0.546;2023-02-19T08:29:12;102106;;;6.87;86.12
62632;BME280;48703;51.248;-0.546;2023-02-19T08:32:14;102121;;;6.88;86.10
62632;BME280;48703;51.248;-0.546;2023-02-19T08:35:16;102132;;;6.90;86.30
62632;BME280;48703;51.248;-0.546;2023-02-19T08:38:18;102149;;;6.91;86.04
62632;BME280;48703;51.248;-0.546;2023-02-19T08:41:20;102165;;;6.92;86.00
62632;BME280;48703;51.248;-0.546;2023-02-19T08:44:22;102161;;;6.94;85.80
62632;BME280;48703;51.248;-0.546;2023-02-19T08:47:24;102172;;;6.96;85.92
62632;BME280;48703;51.248;-0.546;2023-02-19T08:50:26;102182;;;6.99;85.75
62632;BME280;48703;51.248;-0.546;2023-02-19T08:53:28;102178;;;7.02;86.06
62632;BME280;48703;51.248;-0.546;2023-02-19T08:56:30;102148;;;7.07;86.10
62632;BME280;48703;51.248;-0.546;2023-02-19T08:59:31;102142;;;7.10;86.00
62632;BME280;48703;51.248;-0.546;2023-02-19T09:02:34;102145;;;7.12;85.77
62632;BME280;48703;51.248;-0.546;2023-02-19T09:05:36;102159;;;7.14;85.57
62632;BME280;48703;51.248;-0.546;2023-02-19T09:08:37;102164;;;7.16;85.49
62632;BME280;48703;51.248;-0.546;2023-02-19T09:11:39;102151;;;7.19;85.46
62632;BME280;48703;51.248;-0.546;2023-02-19T09:14:41;102152;;;7.20;85.42
62632;BME280;48703;51.248;-0.546;2023-02-19T09:17:43;102169;;;7.22;85.35
62632;BME280;48703;51.248;-0.546;2023-02-19T09:20:45;102161;;;7.23;85.31
62632;BME280;48703;51.248;-0.546;2023-02-19T09:23:47;102167;;;7.26;85.18
62632;BME280;48703;51.248;-0.546;2023-02-19T09:26:49;102180;;;7.27;85.35
62632;BME280;48703;51.248;-0.546;2023-02-19T09:29:51;102185;;;7.30;85.55
62632;BME280;48703;51.248;-0.546;2023-02-19T09:32:53;102190;;;7.33;85.19
62632;BME280;48703;51.248;-0.546;2023-02-19T09:35:57;102184;;;7.37;85.13
62632;BME280;48703;51.248;-0.546;2023-02-19T09:38:57;102199;;;7.41;85.14
62632;BME280;48703;51.248;-0.546;2023-02-19T09:42:00;102198;;;7.45;84.82
62632;BME280;48703;51.248;-0.546;2023-02-19T09:45:00;102196;;;7.50;85.28
62632;BME280;48703;51.248;-0.546;2023-02-19T09:48:03;102196;;;7.56;84.84
62632;BME280;48703;51.248;-0.546;2023-02-19T09:51:05;102194;;;7.61;84.66
62632;BME280;48703;51.248;-0.546;2023-02-19T09:54:08;102199;;;7.66;84.24
62632;BME280;48703;51.248;-0.546;2023-02-19T09:57:09;102217;;;7.72;84.53
62632;BME280;48703;51.248;-0.546;2023-02-19T10:00:18;102226;;;7.76;84.12
62632;BME280;48703;51.248;-0.546;2023-02-19T10:03:13;102230;;;7.81;84.53
62632;BME280;48703;51.248;-0.546;2023-02-19T10:06:15;102234;;;7.86;84.58
62632;BME280;48703;51.248;-0.546;2023-02-19T10:09:18;102240;;;7.92;84.23
62632;BME280;48703;51.248;-0.546;2023-02-19T10:12:23;102239;;;7.97;84.06
62632;BME280;48703;51.248;-0.546;2023-02-19T10:15:21;102237;;;8.05;83.01
62632;BME280;48703;51.248;-0.546;2023-02-19T10:18:22;102233;;;8.15;83.16
62632;BME280;48703;51.248;-0.546;2023-02-19T10:21:24;102234;;;8.26;82.87
62632;BME280;48703;51.248;-0.546;2023-02-19T10:24:26;102235;;;8.36;81.71
62632;BME280;48703;51.248;-0.546;2023-02-19T10:27:28;102238;;;8.42;82.08
62632;BME280;48703;51.248;-0.546;2023-02-19T10:30:30;102245;;;8.51;81.31
62632;BME280;48703;51.248;-0.546;2023-02-19T10:33:31;102242;;;8.63;81.07
62632;BME280;48703;51.248;-0.546;2023-02-19T10:36:34;102246;;;8.72;80.38
62632;BME280;48703;51.248;-0.546;2023-02-19T10:39:37;102255;;;8.82;79.77
62632;BME280;48703;51.248;-0.546;2023-02-19T10:42:37;102254;;;8.89;79.05
62632;BME280;48703;51.248;-0.546;2023-02-19T10:45:39;102254;;;8.93;79.36
62632;BME280;48703;51.248;-0.546;2023-02-19T10:48:43;102250;;;8.96;78.86
62632;BME280;48703;51.248;-0.546;2023-02-19T10:51:43;102253;;;9.01;79.08
62632;BME280;48703;51.248;-0.546;2023-02-19T10:54:45;102259;;;9.06;79.26
62632;BME280;48703;51.248;-0.546;2023-02-19T10:57:47;102257;;;9.07;79.01
62632;BME280;48703;51.248;-0.546;2023-02-19T11:00:50;102248;;;9.09;78.91
62632;BME280;48703;51.248;-0.546;2023-02-19T11:03:51;102253;;;9.11;78.70
62632;BME280;48703;51.248;-0.546;2023-02-19T11:06:52;102241;;;9.13;78.09
62632;BME280;48703;51.248;-0.546;2023-02-19T11:09:54;102247;;;9.14;78.01
62632;BME280;48703;51.248;-0.546;2023-02-19T11:12:57;102255;;;9.17;78.46
62632;BME280;48703;51.248;-0.546;2023-02-19T11:15:58;102266;;;9.22;76.83
62632;BME280;48703;51.248;-0.546;2023-02-19T11:19:00;102252;;;9.28;78.26
62632;BME280;48703;51.248;-0.546;2023-02-19T11:22:15;102252;;;9.30;77.42
62632;BME280;48703;51.248;-0.546;2023-02-19T11:25:05;102252;;;9.34;77.36
62632;BME280;48703;51.248;-0.546;2023-02-19T11:28:16;102255;;;9.36;76.82
62632;BME280;48703;51.248;-0.546;2023-02-19T11:31:12;102256;;;9.39;77.37
62632;BME280;48703;51.248;-0.546;2023-02-19T11:34:22;102257;;;9.44;76.86
62632;BME280;48703;51.248;-0.546;2023-02-19T11:37:12;102258;;;9.51;77.36
62632;BME280;48703;51.248;-0.546;2023-02-19T11:40:14;102256;;;9.58;75.31
62632;BME280;48703;51.248;-0.546;2023-02-19T11:43:23;102254;;;9.68;74.30
62632;BME280;48703;51.248;-0.546;2023-02-19T11:46:19;102259;;;9.72;75.10
62632;BME280;48703;51.248;-0.546;2023-02-19T11:49:22;102258;;;9.79;74.75
62632;BME280;48703;51.248;-0.546;2023-02-19T11:52:24;102259;;;9.84;74.33
62632;BME280;48703;51.248;-0.546;2023-02-19T11:55:28;102258;;;9.88;74.36
62632;BME280;48703;51.248;-0.546;2023-02-19T11:58:34;102262;;;9.92;75.84
62632;BME280;48703;51.248;-0.546;2023-02-19T12:01:29;102256;;;9.97;76.34
62632;BME280;48703;51.248;-0.546;2023-02-19T12:04:34;102257;;;10.04;73.90
62632;BME280;48703;51.248;-0.546;2023-02-19T12:07:38;102262;;;10.11;72.66
62632;BME280;48703;51.248;-0.546;2023-02-19T12:10:34;102251;;;10.15;71.82
62632;BME280;48703;51.248;-0.546;2023-02-19T12:13:38;102254;;;10.22;71.12
62632;BME280;48703;51.248;-0.546;2023-02-19T12:16:37;102254;;;10.29;72.42
62632;BME280;48703;51.248;-0.546;2023-02-19T12:19:42;102248;;;10.35;71.78
62632;BME280;48703;51.248;-0.546;2023-02-19T12:22:42;102234;;;10.35;70.52
62632;BME280;48703;51.248;-0.546;2023-02-19T12:25:48;102229;;;10.36;70.97
62632;BME280;48703;51.248;-0.546;2023-02-19T12:28:56;102212;;;10.37;71.87
62632;BME280;48703;51.248;-0.546;2023-02-19T12:31:53;102204;;;10.38;71.82
62632;BME280;48703;51.248;-0.546;2023-02-19T12:34:57;102196;;;10.40;72.06
62632;BME280;48703;51.248;-0.546;2023-02-19T12:37:51;102197;;;10.49;72.45
62632;BME280;48703;51.248;-0.546;2023-02-19T12:40:56;102191;;;10.62;73.56
62632;BME280;48703;51.248;-0.546;2023-02-19T12:43:55;102188;;;10.66;72.32
62632;BME280;48703;51.248;-0.546;2023-02-19T12:46:57;102184;;;10.70;71.54
62632;BME280;48703;51.248;-0.546;2023-02-19T12:49:59;102184;;;10.70;70.51
62632;BME280;48703;51.248;-0.546;2023-02-19T12:53:01;102176;;;10.74;70.74
62632;BME280;48703;51.248;-0.546;2023-02-19T12:56:03;102174;;;10.83;72.49
62632;BME280;48703;51.248;-0.546;2023-02-19T12:59:07;102182;;;10.95;71.77
62632;BME280;48703;51.248;-0.546;2023-02-19T13:02:09;102185;;;11.03;69.68
62632;BME280;48703;51.248;-0.546;2023-02-19T13:05:12;102183;;;11.13;70.70
62632;BME280;48703;51.248;-0.546;2023-02-19T13:08:11;102183;;;11.22;71.74
62632;BME280;48703;51.248;-0.546;2023-02-19T13:11:13;102187;;;11.30;70.01
62632;BME280;48703;51.248;-0.546;2023-02-19T13:14:15;102187;;;11.32;68.84
62632;BME280;48703;51.248;-0.546;2023-02-19T13:17:18;102185;;;11.33;71.37
62632;BME280;48703;51.248;-0.546;2023-02-19T13:20:19;102185;;;11.37;69.83
62632;BME280;48703;51.248;-0.546;2023-02-19T13:23:20;102188;;;11.43;70.93
62632;BME280;48703;51.248;-0.546;2023-02-19T13:26:27;102187;;;11.47;69.98
62632;BME280;48703;51.248;-0.546;2023-02-19T13:29:28;102188;;;11.54;70.09
62632;BME280;48703;51.248;-0.546;2023-02-19T13:32:33;102184;;;11.59;69.46
62632;BME280;48703;51.248;-0.546;2023-02-19T13:35:34;102180;;;11.69;69.43
62632;BME280;48703;51.248;-0.546;2023-02-19T13:38:29;102171;;;11.82;69.19
62632;BME280;48703;51.248;-0.546;2023-02-19T13:41:32;102167;;;11.96;69.86
62632;BME280;48703;51.248;-0.546;2023-02-19T13:44:33;102168;;;12.03;67.22
62632;BME280;48703;51.248;-0.546;2023-02-19T13:47:58;102160;;;12.10;67.39
62632;BME280;48703;51.248;-0.546;2023-02-19T13:50:37;102160;;;12.14;68.40
62632;BME280;48703;51.248;-0.546;2023-02-19T13:54:43;102164;;;12.21;67.68
62632;BME280;48703;51.248;-0.546;2023-02-19T13:56:40;102160;;;12.27;68.09
62632;BME280;48703;51.248;-0.546;2023-02-19T13:59:43;102161;;;12.30;67.95
62632;BME280;48703;51.248;-0.546;2023-02-19T14:02:44;102159;;;12.32;66.37
62632;BME280;48703;51.248;-0.546;2023-02-19T14:06:02;102142;;;12.38;67.90
62632;BME280;48703;51.248;-0.546;2023-02-19T14:08:50;102138;;;12.42;66.20
62632;BME280;48703;51.248;-0.546;2023-02-19T14:12:16;102138;;;12.46;64.85
62632;BME280;48703;51.248;-0.546;2023-02-19T14:14:52;102130;;;12.50;65.22
62632;BME280;48703;51.248;-0.546;2023-02-19T14:17:54;102119;;;12.57;67.44
62632;BME280;48703;51.248;-0.546;2023-02-19T14:21:05;102119;;;12.63;67.35
62632;BME280;48703;51.248;-0.546;2023-02-19T14:23:58;102128;;;12.67;67.32
62632;BME280;48703;51.248;-0.546;2023-02-19T14:27:00;102126;;;12.70;63.94
62632;BME280;48703;51.248;-0.546;2023-02-19T14:30:02;102123;;;12.72;64.43
62632;BME280;48703;51.248;-0.546;2023-02-19T14:33:04;102125;;;12.76;64.94
62632;BME280;48703;51.248;-0.546;2023-02-19T14:36:10;102124;;;12.82;66.40
62632;BME280;48703;51.248;-0.546;2023-02-19T14:39:09;102123;;;12.86;64.40
62632;BME280;48703;51.248;-0.546;2023-02-19T14:42:11;102122;;;12.88;63.41
62632;BME280;48703;51.248;-0.546;2023-02-19T14:45:11;102124;;;12.97;66.64
62632;BME280;48703;51.248;-0.546;2023-02-19T14:48:15;102122;;;12.98;63.25
62632;BME280;48703;51.248;-0.546;2023-02-19T14:51:20;102110;;;12.99;64.94
62632;BME280;48703;51.248;-0.546;2023-02-19T14:54:18;102110;;;13.01;65.21
62632;BME280;48703;51.248;-0.546;2023-02-19T14:57:20;102114;;;13.04;65.12
62632;BME280;48703;51.248;-0.546;2023-02-19T15:00:22;102110;;;13.06;62.40
62632;BME280;48703;51.248;-0.546;2023-02-19T15:03:24;102113;;;13.03;61.99
62632;BME280;48703;51.248;-0.546;2023-02-19T15:06:25;102118;;;13.04;61.81
62632;BME280;48703;51.248;-0.546;2023-02-19T15:09:28;102117;;;13.04;61.96
62632;BME280;48703;51.248;-0.546;2023-02-19T15:12:29;102113;;;13.06;63.28
62632;BME280;48703;51.248;-0.546;2023-02-19T15:15:31;102112;;;13.11;61.76
62632;BME280;48703;51.248;-0.546;2023-02-19T15:18:32;102111;;;13.13;61.29
62632;BME280;48703;51.248;-0.546;2023-02-19T15:21:37;102113;;;13.17;62.51
62632;BME280;48703;51.248;-0.546;2023-02-19T15:24:36;102110;;;13.21;63.06
62632;BME280;48703;51.248;-0.546;2023-02-19T15:27:38;102105;;;13.19;61.00
62632;BME280;48703;51.248;-0.546;2023-02-19T15:30:40;102106;;;13.23;62.13
62632;BME280;48703;51.248;-0.546;2023-02-19T15:33:49;102104;;;13.24;62.66
62632;BME280;48703;51.248;-0.546;2023-02-19T15:36:44;102104;;;13.27;61.63
62632;BME280;48703;51.248;-0.546;2023-02-19T15:39:46;102101;;;13.30;63.57
62632;BME280;48703;51.248;-0.546;2023-02-19T15:42:48;102099;;;13.31;62.20
62632;BME280;48703;51.248;-0.546;2023-02-19T15:45:50;102098;;;13.29;61.23
62632;BME280;48703;51.248;-0.546;2023-02-19T15:48:55;102094;;;13.29;62.36
62632;BME280;48703;51.248;-0.546;2023-02-19T15:51:54;102087;;;13.26;62.27
62632;BME280;48703;51.248;-0.546;2023-02-19T15:54:56;102082;;;13.26;62.93
62632;BME280;48703;51.248;-0.546;2023-02-19T15:58:00;102080;;;13.23;61.15
62632;BME280;48703;51.248;-0.546;2023-02-19T16:01:00;102073;;;13.19;62.86
62632;BME280;48703;51.248;-0.546;2023-02-19T16:04:01;102071;;;13.16;62.05
62632;BME280;48703;51.248;-0.546;2023-02-19T16:07:03;102072;;;13.12;62.56
62632;BME280;48703;51.248;-0.546;2023-02-19T16:10:11;102069;;;13.10;63.56
62632;BME280;48703;51.248;-0.546;2023-02-19T16:13:10;102066;;;13.07;63.39
62632;BME280;48703;51.248;-0.546;2023-02-19T16:16:13;102067;;;13.02;63.65
62632;BME280;48703;51.248;-0.546;2023-02-19T16:19:11;102068;;;12.98;63.43
62632;BME280;48703;51.248;-0.546;2023-02-19T16:22:14;102066;;;12.91;63.87
62632;BME280;48703;51.248;-0.546;2023-02-19T16:25:23;102063;;;12.83;63.24
62632;BME280;48703;51.248;-0.546;2023-02-19T16:28:18;102064;;;12.78;64.16